sensor_id;sensor_type;location;lat;lon;timestamp;P1;durP1;ratioP1;P2;durP2;ratioP2
15899;SDS011;8048;50.644;6.184;2023-08-08T00:00:06;2.10;;;1.90;;
15899;SDS011;8048;50.644;6.184;2023-08-08T00:02:33;2.13;;;2.03;;
15899;SDS011;8048;50.644;6.184;2023-08-08T00:04:58;2.13;;;1.97;;
15899;SDS011;8048;50.644;6.184;2023-08-08T00:07:24;2.00;;;1.90;;
15899;SDS011;8048;50.644;6.184;2023-08-08T00:09:50;2.87;;;2.13;;
15899;SDS011;8048;50.644;6.184;2023-08-08T00:12:15;2.57;;;2.37;;
15899;SDS011;8048;50.644;6.184;2023-08-08T00:14:41;3.17;;;2.23;;
15899;SDS011;8048;50.644;6.184;2023-08-08T00:17:06;2.33;;;2.23;;
15899;SDS011;8048;50.644;6.184;2023-08-08T00:19:32;2.43;;;2.33;;
15899;SDS011;8048;50.644;6.184;2023-08-08T00:21:57;2.60;;;2.37;;
15899;SDS011;8048;50.644;6.184;2023-08-08T00:24:23;2.77;;;2.57;;
15899;SDS011;8048;50.644;6.184;2023-08-08T00:26:48;2.27;;;2.10;;
15899;SDS011;8048;50.644;6.184;2023-08-08T00:29:14;3.63;;;3.43;;
15899;SDS011;8048;50.644;6.184;2023-08-08T00:31:39;3.10;;;2.50;;
15899;SDS011;8048;50.644;6.184;2023-08-08T00:34:05;2.53;;;2.43;;
15899;SDS011;8048;50.644;6.184;2023-08-08T00:36:31;2.13;;;2.03;;
15899;SDS011;8048;50.644;6.184;2023-08-08T00:38:56;2.33;;;2.13;;
15899;SDS011;8048;50.644;6.184;2023-08-08T00:41:22;2.40;;;2.20;;
15899;SDS011;8048;50.644;6.184;2023-08-08T00:43:47;1.90;;;1.70;;
15899;SDS011;8048;50.644;6.184;2023-08-08T00:46:14;2.40;;;2.30;;
15899;SDS011;8048;50.644;6.184;2023-08-08T00:48:39;2.60;;;2.40;;
15899;SDS011;8048;50.644;6.184;2023-08-08T00:51:05;2.60;;;2.50;;
15899;SDS011;8048;50.644;6.184;2023-08-08T00:53:30;2.50;;;2.40;;
15899;SDS011;8048;50.644;6.184;2023-08-08T00:55:56;3.13;;;2.80;;
15899;SDS011;8048;50.644;6.184;2023-08-08T00:58:23;4.63;;;3.23;;
15899;SDS011;8048;50.644;6.184;2023-08-08T01:00:49;3.57;;;2.60;;
15899;SDS011;8048;50.644;6.184;2023-08-08T01:03:17;4.50;;;2.30;;
15899;SDS011;8048;50.644;6.184;2023-08-08T01:05:51;2.63;;;2.50;;
15899;SDS011;8048;50.644;6.184;2023-08-08T01:08:25;3.33;;;3.00;;
15899;SDS011;8048;50.644;6.184;2023-08-08T01:10:56;2.93;;;2.63;;
15899;SDS011;8048;50.644;6.184;2023-08-08T01:13:22;2.40;;;2.20;;
15899;SDS011;8048;50.644;6.184;2023-08-08T01:15:49;5.60;;;3.33;;
15899;SDS011;8048;50.644;6.184;2023-08-08T01:18:17;2.90;;;2.70;;
15899;SDS011;8048;50.644;6.184;2023-08-08T01:20:44;6.53;;;2.57;;
15899;SDS011;8048;50.644;6.184;2023-08-08T01:25:57;3.60;;;2.30;;
15899;SDS011;8048;50.644;6.184;2023-08-08T01:28:24;2.20;;;2.10;;
15899;SDS011;8048;50.644;6.184;2023-08-08T01:30:50;6.40;;;2.83;;
15899;SDS011;8048;50.644;6.184;2023-08-08T01:33:16;2.53;;;2.40;;
15899;SDS011;8048;50.644;6.184;2023-08-08T01:35:43;2.60;;;2.40;;
15899;SDS011;8048;50.644;6.184;2023-08-08T01:38:31;2.67;;;2.47;;
15899;SDS011;8048;50.644;6.184;2023-08-08T01:41:17;2.67;;;2.40;;
15899;SDS011;8048;50.644;6.184;2023-08-08T01:43:43;2.70;;;2.50;;
15899;SDS011;8048;50.644;6.184;2023-08-08T01:46:09;4.23;;;2.87;;
15899;SDS011;8048;50.644;6.184;2023-08-08T01:48:35;2.47;;;2.27;;
15899;SDS011;8048;50.644;6.184;2023-08-08T01:51:01;2.40;;;2.20;;
15899;SDS011;8048;50.644;6.184;2023-08-08T01:53:27;2.50;;;2.30;;
15899;SDS011;8048;50.644;6.184;2023-08-08T01:55:53;2.57;;;2.37;;
15899;SDS011;8048;50.644;6.184;2023-08-08T01:58:19;2.93;;;2.60;;
15899;SDS011;8048;50.644;6.184;2023-08-08T02:00:44;2.83;;;2.60;;
15899;SDS011;8048;50.644;6.184;2023-08-08T02:03:11;2.10;;;2.00;;
15899;SDS011;8048;50.644;6.184;2023-08-08T02:05:37;6.33;;;2.53;;
15899;SDS011;8048;50.644;6.184;2023-08-08T02:08:02;2.30;;;2.20;;
15899;SDS011;8048;50.644;6.184;2023-08-08T02:10:28;2.70;;;2.50;;
15899;SDS011;8048;50.644;6.184;2023-08-08T02:12:54;5.40;;;2.77;;
15899;SDS011;8048;50.644;6.184;2023-08-08T02:15:19;2.27;;;2.07;;
15899;SDS011;8048;50.644;6.184;2023-08-08T02:17:45;3.00;;;2.63;;
15899;SDS011;8048;50.644;6.184;2023-08-08T02:20:11;2.03;;;1.93;;
15899;SDS011;8048;50.644;6.184;2023-08-08T02:22:37;2.30;;;2.20;;
15899;SDS011;8048;50.644;6.184;2023-08-08T02:25:02;3.20;;;3.00;;
15899;SDS011;8048;50.644;6.184;2023-08-08T02:27:28;2.30;;;2.17;;
15899;SDS011;8048;50.644;6.184;2023-08-08T02:29:54;5.50;;;2.37;;
15899;SDS011;8048;50.644;6.184;2023-08-08T02:32:19;3.27;;;2.97;;
15899;SDS011;8048;50.644;6.184;2023-08-08T02:34:45;2.93;;;2.63;;
15899;SDS011;8048;50.644;6.184;2023-08-08T02:37:10;2.57;;;2.37;;
15899;SDS011;8048;50.644;6.184;2023-08-08T02:39:36;3.90;;;3.60;;
15899;SDS011;8048;50.644;6.184;2023-08-08T02:42:01;2.57;;;2.40;;
15899;SDS011;8048;50.644;6.184;2023-08-08T02:44:27;2.70;;;2.30;;
15899;SDS011;8048;50.644;6.184;2023-08-08T02:46:53;4.83;;;2.93;;
15899;SDS011;8048;50.644;6.184;2023-08-08T02:49:18;2.20;;;2.10;;
15899;SDS011;8048;50.644;6.184;2023-08-08T02:51:44;1.93;;;1.80;;
15899;SDS011;8048;50.644;6.184;2023-08-08T02:54:09;3.10;;;2.90;;
15899;SDS011;8048;50.644;6.184;2023-08-08T02:56:35;3.50;;;2.00;;
15899;SDS011;8048;50.644;6.184;2023-08-08T02:59:00;3.00;;;2.80;;
15899;SDS011;8048;50.644;6.184;2023-08-08T03:01:26;2.73;;;2.50;;
15899;SDS011;8048;50.644;6.184;2023-08-08T03:03:51;2.90;;;2.60;;
15899;SDS011;8048;50.644;6.184;2023-08-08T03:06:17;3.30;;;3.00;;
15899;SDS011;8048;50.644;6.184;2023-08-08T03:08:43;2.63;;;2.47;;
15899;SDS011;8048;50.644;6.184;2023-08-08T03:11:08;3.30;;;2.93;;
15899;SDS011;8048;50.644;6.184;2023-08-08T03:13:34;2.43;;;2.30;;
15899;SDS011;8048;50.644;6.184;2023-08-08T03:15:59;2.67;;;2.47;;
15899;SDS011;8048;50.644;6.184;2023-08-08T03:18:25;2.40;;;2.20;;
15899;SDS011;8048;50.644;6.184;2023-08-08T03:20:53;2.73;;;2.53;;
15899;SDS011;8048;50.644;6.184;2023-08-08T03:23:19;2.80;;;2.60;;
15899;SDS011;8048;50.644;6.184;2023-08-08T03:25:48;2.87;;;2.67;;
15899;SDS011;8048;50.644;6.184;2023-08-08T03:28:14;8.53;;;2.93;;
15899;SDS011;8048;50.644;6.184;2023-08-08T03:30:40;2.80;;;2.60;;
15899;SDS011;8048;50.644;6.184;2023-08-08T03:33:05;3.10;;;2.90;;
15899;SDS011;8048;50.644;6.184;2023-08-08T03:35:31;2.53;;;2.30;;
15899;SDS011;8048;50.644;6.184;2023-08-08T03:37:56;3.13;;;2.83;;
15899;SDS011;8048;50.644;6.184;2023-08-08T03:40:22;3.03;;;2.83;;
15899;SDS011;8048;50.644;6.184;2023-08-08T03:42:47;4.97;;;3.60;;
15899;SDS011;8048;50.644;6.184;2023-08-08T03:45:13;3.47;;;3.17;;
15899;SDS011;8048;50.644;6.184;2023-08-08T03:47:38;8.20;;;3.90;;
15899;SDS011;8048;50.644;6.184;2023-08-08T03:50:05;5.43;;;3.73;;
15899;SDS011;8048;50.644;6.184;2023-08-08T03:52:32;8.40;;;3.83;;
15899;SDS011;8048;50.644;6.184;2023-08-08T03:55:00;4.07;;;3.33;;
15899;SDS011;8048;50.644;6.184;2023-08-08T03:57:26;6.03;;;3.27;;
15899;SDS011;8048;50.644;6.184;2023-08-08T03:59:51;6.20;;;3.67;;
15899;SDS011;8048;50.644;6.184;2023-08-08T04:02:17;3.87;;;3.47;;
15899;SDS011;8048;50.644;6.184;2023-08-08T04:04:42;4.00;;;3.77;;
15899;SDS011;8048;50.644;6.184;2023-08-08T04:07:08;5.30;;;3.50;;
15899;SDS011;8048;50.644;6.184;2023-08-08T04:09:33;4.13;;;3.83;;
15899;SDS011;8048;50.644;6.184;2023-08-08T04:11:59;6.17;;;4.20;;
15899;SDS011;8048;50.644;6.184;2023-08-08T04:14:24;9.03;;;5.33;;
15899;SDS011;8048;50.644;6.184;2023-08-08T04:16:50;9.50;;;4.63;;
15899;SDS011;8048;50.644;6.184;2023-08-08T04:19:16;11.87;;;4.80;;
15899;SDS011;8048;50.644;6.184;2023-08-08T04:21:41;7.40;;;4.70;;
15899;SDS011;8048;50.644;6.184;2023-08-08T04:24:07;5.67;;;4.00;;
15899;SDS011;8048;50.644;6.184;2023-08-08T04:26:33;9.60;;;4.67;;
15899;SDS011;8048;50.644;6.184;2023-08-08T04:28:58;6.03;;;4.67;;
15899;SDS011;8048;50.644;6.184;2023-08-08T04:31:24;5.47;;;4.30;;
15899;SDS011;8048;50.644;6.184;2023-08-08T04:33:51;6.50;;;4.97;;
15899;SDS011;8048;50.644;6.184;2023-08-08T04:36:20;7.23;;;5.50;;
15899;SDS011;8048;50.644;6.184;2023-08-08T04:38:46;6.50;;;4.27;;
15899;SDS011;8048;50.644;6.184;2023-08-08T04:41:11;4.10;;;3.80;;
15899;SDS011;8048;50.644;6.184;2023-08-08T04:43:37;5.33;;;4.93;;
15899;SDS011;8048;50.644;6.184;2023-08-08T04:46:02;4.97;;;4.47;;
15899;SDS011;8048;50.644;6.184;2023-08-08T04:48:28;7.30;;;4.70;;
15899;SDS011;8048;50.644;6.184;2023-08-08T04:50:53;6.43;;;4.30;;
15899;SDS011;8048;50.644;6.184;2023-08-08T04:53:19;4.63;;;4.23;;
15899;SDS011;8048;50.644;6.184;2023-08-08T04:55:45;6.50;;;5.80;;
15899;SDS011;8048;50.644;6.184;2023-08-08T04:58:11;6.07;;;5.03;;
15899;SDS011;8048;50.644;6.184;2023-08-08T05:00:36;6.77;;;5.47;;
15899;SDS011;8048;50.644;6.184;2023-08-08T05:03:02;6.33;;;5.43;;
15899;SDS011;8048;50.644;6.184;2023-08-08T05:05:28;8.60;;;6.43;;
15899;SDS011;8048;50.644;6.184;2023-08-08T05:07:53;7.73;;;5.63;;
15899;SDS011;8048;50.644;6.184;2023-08-08T05:10:19;5.93;;;4.80;;
15899;SDS011;8048;50.644;6.184;2023-08-08T05:12:44;5.30;;;4.70;;
15899;SDS011;8048;50.644;6.184;2023-08-08T05:15:10;4.33;;;3.97;;
15899;SDS011;8048;50.644;6.184;2023-08-08T05:17:35;8.33;;;5.23;;
15899;SDS011;8048;50.644;6.184;2023-08-08T05:20:01;8.43;;;3.97;;
15899;SDS011;8048;50.644;6.184;2023-08-08T05:22:27;5.17;;;4.57;;
15899;SDS011;8048;50.644;6.184;2023-08-08T05:24:53;4.93;;;4.07;;
15899;SDS011;8048;50.644;6.184;2023-08-08T05:27:18;4.43;;;4.03;;
15899;SDS011;8048;50.644;6.184;2023-08-08T05:29:44;7.70;;;4.63;;
15899;SDS011;8048;50.644;6.184;2023-08-08T05:32:09;4.97;;;4.57;;
15899;SDS011;8048;50.644;6.184;2023-08-08T05:34:35;7.47;;;4.00;;
15899;SDS011;8048;50.644;6.184;2023-08-08T05:37:00;6.33;;;4.10;;
15899;SDS011;8048;50.644;6.184;2023-08-08T05:39:26;3.90;;;3.60;;
15899;SDS011;8048;50.644;6.184;2023-08-08T05:41:52;4.50;;;3.80;;
15899;SDS011;8048;50.644;6.184;2023-08-08T05:44:17;7.83;;;4.50;;
15899;SDS011;8048;50.644;6.184;2023-08-08T05:46:43;4.90;;;4.40;;
15899;SDS011;8048;50.644;6.184;2023-08-08T05:49:09;6.03;;;3.77;;
15899;SDS011;8048;50.644;6.184;2023-08-08T05:51:34;8.53;;;3.60;;
15899;SDS011;8048;50.644;6.184;2023-08-08T05:54:00;4.73;;;3.37;;
15899;SDS011;8048;50.644;6.184;2023-08-08T05:56:27;5.23;;;4.57;;
15899;SDS011;8048;50.644;6.184;2023-08-08T05:58:59;3.97;;;3.57;;
15899;SDS011;8048;50.644;6.184;2023-08-08T06:01:25;3.70;;;3.50;;
15899;SDS011;8048;50.644;6.184;2023-08-08T06:03:50;8.37;;;3.90;;
15899;SDS011;8048;50.644;6.184;2023-08-08T06:06:17;6.20;;;4.17;;
15899;SDS011;8048;50.644;6.184;2023-08-08T06:08:43;4.43;;;4.03;;
15899;SDS011;8048;50.644;6.184;2023-08-08T06:11:09;7.40;;;3.77;;
15899;SDS011;8048;50.644;6.184;2023-08-08T06:13:34;7.27;;;4.70;;
15899;SDS011;8048;50.644;6.184;2023-08-08T06:16:00;4.77;;;4.40;;
15899;SDS011;8048;50.644;6.184;2023-08-08T06:18:26;5.50;;;4.47;;
15899;SDS011;8048;50.644;6.184;2023-08-08T06:20:52;6.93;;;4.73;;
15899;SDS011;8048;50.644;6.184;2023-08-08T06:23:17;8.73;;;5.10;;
15899;SDS011;8048;50.644;6.184;2023-08-08T06:25:43;7.90;;;4.80;;
15899;SDS011;8048;50.644;6.184;2023-08-08T06:28:08;4.17;;;3.80;;
15899;SDS011;8048;50.644;6.184;2023-08-08T06:30:34;5.27;;;4.73;;
15899;SDS011;8048;50.644;6.184;2023-08-08T06:32:59;7.20;;;4.70;;
15899;SDS011;8048;50.644;6.184;2023-08-08T06:35:25;8.90;;;7.83;;
15899;SDS011;8048;50.644;6.184;2023-08-08T06:37:50;7.83;;;5.40;;
15899;SDS011;8048;50.644;6.184;2023-08-08T06:40:16;5.73;;;4.83;;
15899;SDS011;8048;50.644;6.184;2023-08-08T06:42:42;5.17;;;4.70;;
15899;SDS011;8048;50.644;6.184;2023-08-08T06:45:07;5.73;;;5.20;;
15899;SDS011;8048;50.644;6.184;2023-08-08T06:47:34;7.53;;;5.93;;
15899;SDS011;8048;50.644;6.184;2023-08-08T06:50:00;6.03;;;5.53;;
15899;SDS011;8048;50.644;6.184;2023-08-08T06:52:26;5.37;;;4.87;;
15899;SDS011;8048;50.644;6.184;2023-08-08T06:57:17;5.97;;;5.07;;
15899;SDS011;8048;50.644;6.184;2023-08-08T06:59:42;6.33;;;5.43;;
15899;SDS011;8048;50.644;6.184;2023-08-08T07:02:08;7.37;;;6.03;;
15899;SDS011;8048;50.644;6.184;2023-08-08T07:04:34;7.70;;;7.07;;
15899;SDS011;8048;50.644;6.184;2023-08-08T07:07:00;5.13;;;4.63;;
15899;SDS011;8048;50.644;6.184;2023-08-08T07:09:25;5.70;;;5.00;;
15899;SDS011;8048;50.644;6.184;2023-08-08T07:11:51;8.93;;;4.90;;
15899;SDS011;8048;50.644;6.184;2023-08-08T07:14:16;8.13;;;5.10;;
15899;SDS011;8048;50.644;6.184;2023-08-08T07:16:42;9.07;;;5.07;;
15899;SDS011;8048;50.644;6.184;2023-08-08T07:19:07;4.87;;;4.27;;
15899;SDS011;8048;50.644;6.184;2023-08-08T07:21:33;3.63;;;3.33;;
15899;SDS011;8048;50.644;6.184;2023-08-08T07:23:58;7.97;;;4.20;;
15899;SDS011;8048;50.644;6.184;2023-08-08T07:26:24;5.70;;;4.37;;
15899;SDS011;8048;50.644;6.184;2023-08-08T07:28:49;4.53;;;4.23;;
15899;SDS011;8048;50.644;6.184;2023-08-08T07:31:15;4.30;;;3.90;;
15899;SDS011;8048;50.644;6.184;2023-08-08T07:33:40;6.63;;;3.87;;
15899;SDS011;8048;50.644;6.184;2023-08-08T07:36:06;4.07;;;3.77;;
15899;SDS011;8048;50.644;6.184;2023-08-08T07:38:31;3.53;;;3.10;;
15899;SDS011;8048;50.644;6.184;2023-08-08T07:40:58;3.47;;;3.17;;
15899;SDS011;8048;50.644;6.184;2023-08-08T07:43:23;3.77;;;3.40;;
15899;SDS011;8048;50.644;6.184;2023-08-08T07:45:49;3.43;;;3.00;;
15899;SDS011;8048;50.644;6.184;2023-08-08T07:48:14;3.60;;;3.30;;
15899;SDS011;8048;50.644;6.184;2023-08-08T07:50:40;5.10;;;3.43;;
15899;SDS011;8048;50.644;6.184;2023-08-08T07:53:06;5.83;;;5.43;;
15899;SDS011;8048;50.644;6.184;2023-08-08T07:55:33;8.40;;;3.10;;
15899;SDS011;8048;50.644;6.184;2023-08-08T07:57:58;3.37;;;3.07;;
15899;SDS011;8048;50.644;6.184;2023-08-08T08:00:24;3.00;;;2.80;;
15899;SDS011;8048;50.644;6.184;2023-08-08T08:02:49;3.63;;;3.10;;
15899;SDS011;8048;50.644;6.184;2023-08-08T08:05:15;2.73;;;2.47;;
15899;SDS011;8048;50.644;6.184;2023-08-08T08:07:40;4.13;;;3.70;;
15899;SDS011;8048;50.644;6.184;2023-08-08T08:10:07;2.70;;;2.60;;
15899;SDS011;8048;50.644;6.184;2023-08-08T08:12:35;3.07;;;2.60;;
15899;SDS011;8048;50.644;6.184;2023-08-08T08:15:01;3.40;;;3.20;;
15899;SDS011;8048;50.644;6.184;2023-08-08T08:17:27;4.93;;;2.97;;
15899;SDS011;8048;50.644;6.184;2023-08-08T08:19:53;7.70;;;2.90;;
15899;SDS011;8048;50.644;6.184;2023-08-08T08:22:19;6.77;;;2.73;;
15899;SDS011;8048;50.644;6.184;2023-08-08T08:24:45;4.33;;;3.27;;
15899;SDS011;8048;50.644;6.184;2023-08-08T08:27:11;6.60;;;3.03;;
15899;SDS011;8048;50.644;6.184;2023-08-08T08:29:37;3.93;;;2.90;;
15899;SDS011;8048;50.644;6.184;2023-08-08T08:32:02;6.40;;;3.50;;
15899;SDS011;8048;50.644;6.184;2023-08-08T08:34:28;2.77;;;2.57;;
15899;SDS011;8048;50.644;6.184;2023-08-08T08:36:54;2.73;;;2.60;;
15899;SDS011;8048;50.644;6.184;2023-08-08T08:39:19;3.13;;;2.60;;
15899;SDS011;8048;50.644;6.184;2023-08-08T08:41:46;2.50;;;2.40;;
15899;SDS011;8048;50.644;6.184;2023-08-08T08:44:14;2.20;;;2.10;;
15899;SDS011;8048;50.644;6.184;2023-08-08T08:46:41;6.27;;;3.20;;
15899;SDS011;8048;50.644;6.184;2023-08-08T08:49:07;2.80;;;2.70;;
15899;SDS011;8048;50.644;6.184;2023-08-08T08:51:35;2.77;;;2.57;;
15899;SDS011;8048;50.644;6.184;2023-08-08T08:54:01;4.30;;;2.40;;
15899;SDS011;8048;50.644;6.184;2023-08-08T08:56:27;4.33;;;2.37;;
15899;SDS011;8048;50.644;6.184;2023-08-08T08:58:54;6.07;;;2.83;;
15899;SDS011;8048;50.644;6.184;2023-08-08T09:01:19;3.73;;;3.43;;
15899;SDS011;8048;50.644;6.184;2023-08-08T09:03:47;4.37;;;2.67;;
15899;SDS011;8048;50.644;6.184;2023-08-08T09:06:13;2.80;;;2.67;;
15899;SDS011;8048;50.644;6.184;2023-08-08T09:08:41;4.10;;;2.30;;
15899;SDS011;8048;50.644;6.184;2023-08-08T09:11:06;2.80;;;2.60;;
15899;SDS011;8048;50.644;6.184;2023-08-08T09:13:41;2.70;;;2.50;;
15899;SDS011;8048;50.644;6.184;2023-08-08T09:16:07;3.20;;;2.77;;
15899;SDS011;8048;50.644;6.184;2023-08-08T09:18:33;4.40;;;2.30;;
15899;SDS011;8048;50.644;6.184;2023-08-08T09:20:59;4.87;;;2.20;;
15899;SDS011;8048;50.644;6.184;2023-08-08T09:23:25;2.60;;;2.40;;
15899;SDS011;8048;50.644;6.184;2023-08-08T09:25:51;3.10;;;2.00;;
15899;SDS011;8048;50.644;6.184;2023-08-08T09:28:17;2.87;;;2.67;;
15899;SDS011;8048;50.644;6.184;2023-08-08T09:30:43;4.47;;;2.77;;
15899;SDS011;8048;50.644;6.184;2023-08-08T09:33:09;3.63;;;2.57;;
15899;SDS011;8048;50.644;6.184;2023-08-08T09:35:37;2.80;;;2.60;;
15899;SDS011;8048;50.644;6.184;2023-08-08T09:38:04;2.97;;;2.77;;
15899;SDS011;8048;50.644;6.184;2023-08-08T09:40:29;2.90;;;2.60;;
15899;SDS011;8048;50.644;6.184;2023-08-08T09:42:55;2.70;;;2.30;;
15899;SDS011;8048;50.644;6.184;2023-08-08T09:45:23;2.83;;;2.20;;
15899;SDS011;8048;50.644;6.184;2023-08-08T09:47:49;2.33;;;2.20;;
15899;SDS011;8048;50.644;6.184;2023-08-08T09:50:17;2.20;;;2.00;;
15899;SDS011;8048;50.644;6.184;2023-08-08T09:52:43;3.03;;;2.83;;
15899;SDS011;8048;50.644;6.184;2023-08-08T09:55:11;2.63;;;2.43;;
15899;SDS011;8048;50.644;6.184;2023-08-08T09:57:38;7.13;;;2.77;;
15899;SDS011;8048;50.644;6.184;2023-08-08T10:00:05;3.40;;;2.57;;
15899;SDS011;8048;50.644;6.184;2023-08-08T10:02:35;2.13;;;1.93;;
15899;SDS011;8048;50.644;6.184;2023-08-08T10:05:02;3.53;;;2.00;;
15899;SDS011;8048;50.644;6.184;2023-08-08T10:07:29;3.90;;;2.43;;
15899;SDS011;8048;50.644;6.184;2023-08-08T10:09:55;5.10;;;2.03;;
15899;SDS011;8048;50.644;6.184;2023-08-08T10:12:23;6.97;;;2.40;;
15899;SDS011;8048;50.644;6.184;2023-08-08T10:14:51;3.00;;;2.80;;
15899;SDS011;8048;50.644;6.184;2023-08-08T10:17:18;6.63;;;2.67;;
15899;SDS011;8048;50.644;6.184;2023-08-08T10:19:49;2.40;;;2.20;;
15899;SDS011;8048;50.644;6.184;2023-08-08T10:22:22;3.03;;;2.67;;
15899;SDS011;8048;50.644;6.184;2023-08-08T10:24:51;3.33;;;2.90;;
15899;SDS011;8048;50.644;6.184;2023-08-08T10:27:27;4.00;;;2.90;;
15899;SDS011;8048;50.644;6.184;2023-08-08T10:30:00;6.90;;;3.77;;
15899;SDS011;8048;50.644;6.184;2023-08-08T10:32:27;3.43;;;2.83;;
15899;SDS011;8048;50.644;6.184;2023-08-08T10:34:54;3.00;;;2.80;;
15899;SDS011;8048;50.644;6.184;2023-08-08T10:37:21;4.37;;;3.03;;
15899;SDS011;8048;50.644;6.184;2023-08-08T10:39:54;3.43;;;3.13;;
15899;SDS011;8048;50.644;6.184;2023-08-08T10:42:24;3.23;;;2.63;;
15899;SDS011;8048;50.644;6.184;2023-08-08T10:44:51;2.93;;;2.73;;
15899;SDS011;8048;50.644;6.184;2023-08-08T10:47:34;4.27;;;3.47;;
15899;SDS011;8048;50.644;6.184;2023-08-08T10:52:29;3.53;;;2.07;;
15899;SDS011;8048;50.644;6.184;2023-08-08T10:54:54;7.43;;;2.87;;
15899;SDS011;8048;50.644;6.184;2023-08-08T10:57:23;4.43;;;1.97;;
15899;SDS011;8048;50.644;6.184;2023-08-08T10:59:50;4.33;;;2.00;;
15899;SDS011;8048;50.644;6.184;2023-08-08T11:02:16;3.20;;;2.13;;
15899;SDS011;8048;50.644;6.184;2023-08-08T11:04:41;4.77;;;2.10;;
15899;SDS011;8048;50.644;6.184;2023-08-08T11:07:07;2.43;;;1.80;;
15899;SDS011;8048;50.644;6.184;2023-08-08T11:09:34;2.90;;;2.27;;
15899;SDS011;8048;50.644;6.184;2023-08-08T11:11:59;2.20;;;2.10;;
15899;SDS011;8048;50.644;6.184;2023-08-08T11:14:25;5.43;;;2.17;;
15899;SDS011;8048;50.644;6.184;2023-08-08T11:16:50;2.53;;;2.20;;
15899;SDS011;8048;50.644;6.184;2023-08-08T11:19:17;2.10;;;1.90;;
15899;SDS011;8048;50.644;6.184;2023-08-08T11:21:44;3.20;;;2.50;;
15899;SDS011;8048;50.644;6.184;2023-08-08T11:24:11;4.43;;;2.30;;
15899;SDS011;8048;50.644;6.184;2023-08-08T11:26:38;2.03;;;1.93;;
15899;SDS011;8048;50.644;6.184;2023-08-08T11:29:05;4.70;;;2.13;;
15899;SDS011;8048;50.644;6.184;2023-08-08T11:31:33;2.27;;;2.17;;
15899;SDS011;8048;50.644;6.184;2023-08-08T11:33:59;2.50;;;1.83;;
15899;SDS011;8048;50.644;6.184;2023-08-08T11:36:26;5.93;;;1.93;;
15899;SDS011;8048;50.644;6.184;2023-08-08T11:38:55;2.70;;;2.40;;
15899;SDS011;8048;50.644;6.184;2023-08-08T11:41:22;2.33;;;2.13;;
15899;SDS011;8048;50.644;6.184;2023-08-08T11:43:49;4.63;;;2.40;;
15899;SDS011;8048;50.644;6.184;2023-08-08T11:46:16;2.97;;;2.30;;
15899;SDS011;8048;50.644;6.184;2023-08-08T11:48:42;2.90;;;2.40;;
15899;SDS011;8048;50.644;6.184;2023-08-08T11:51:10;3.43;;;2.60;;
15899;SDS011;8048;50.644;6.184;2023-08-08T11:53:47;3.20;;;2.90;;
15899;SDS011;8048;50.644;6.184;2023-08-08T11:56:17;8.37;;;4.50;;
15899;SDS011;8048;50.644;6.184;2023-08-08T11:58:44;9.27;;;3.20;;
15899;SDS011;8048;50.644;6.184;2023-08-08T12:01:10;3.37;;;2.87;;
15899;SDS011;8048;50.644;6.184;2023-08-08T12:03:38;3.23;;;3.00;;
15899;SDS011;8048;50.644;6.184;2023-08-08T12:06:14;5.00;;;2.60;;
15899;SDS011;8048;50.644;6.184;2023-08-08T12:08:41;5.20;;;3.17;;
15899;SDS011;8048;50.644;6.184;2023-08-08T12:11:08;5.27;;;3.30;;
15899;SDS011;8048;50.644;6.184;2023-08-08T12:13:36;6.83;;;3.07;;
15899;SDS011;8048;50.644;6.184;2023-08-08T12:16:05;4.53;;;3.07;;
15899;SDS011;8048;50.644;6.184;2023-08-08T12:18:34;3.30;;;2.80;;
15899;SDS011;8048;50.644;6.184;2023-08-08T12:21:00;3.40;;;3.10;;
15899;SDS011;8048;50.644;6.184;2023-08-08T12:23:26;5.17;;;4.70;;
15899;SDS011;8048;50.644;6.184;2023-08-08T12:25:52;6.13;;;3.57;;
15899;SDS011;8048;50.644;6.184;2023-08-08T12:28:18;3.20;;;3.00;;
15899;SDS011;8048;50.644;6.184;2023-08-08T12:30:44;7.33;;;3.70;;
15899;SDS011;8048;50.644;6.184;2023-08-08T12:33:09;2.80;;;2.60;;
15899;SDS011;8048;50.644;6.184;2023-08-08T12:35:35;6.03;;;3.00;;
15899;SDS011;8048;50.644;6.184;2023-08-08T12:38:00;3.67;;;3.20;;
15899;SDS011;8048;50.644;6.184;2023-08-08T12:40:27;2.93;;;2.73;;
15899;SDS011;8048;50.644;6.184;2023-08-08T12:42:53;2.93;;;2.70;;
15899;SDS011;8048;50.644;6.184;2023-08-08T12:45:19;3.57;;;3.10;;
15899;SDS011;8048;50.644;6.184;2023-08-08T12:47:44;3.47;;;3.17;;
15899;SDS011;8048;50.644;6.184;2023-08-08T12:50:10;4.83;;;3.40;;
15899;SDS011;8048;50.644;6.184;2023-08-08T12:52:35;7.17;;;2.77;;
15899;SDS011;8048;50.644;6.184;2023-08-08T12:55:03;12.90;;;3.47;;
15899;SDS011;8048;50.644;6.184;2023-08-08T12:57:29;5.37;;;2.60;;
15899;SDS011;8048;50.644;6.184;2023-08-08T12:59:56;2.80;;;2.60;;
15899;SDS011;8048;50.644;6.184;2023-08-08T13:02:22;4.30;;;2.87;;
15899;SDS011;8048;50.644;6.184;2023-08-08T13:04:47;6.13;;;2.77;;
15899;SDS011;8048;50.644;6.184;2023-08-08T13:07:13;3.93;;;2.83;;
15899;SDS011;8048;50.644;6.184;2023-08-08T13:09:38;2.90;;;2.53;;
15899;SDS011;8048;50.644;6.184;2023-08-08T13:12:04;2.83;;;2.63;;
15899;SDS011;8048;50.644;6.184;2023-08-08T13:14:30;4.43;;;2.73;;
15899;SDS011;8048;50.644;6.184;2023-08-08T13:16:55;2.30;;;2.03;;
15899;SDS011;8048;50.644;6.184;2023-08-08T13:19:21;2.40;;;2.20;;
15899;SDS011;8048;50.644;6.184;2023-08-08T13:21:50;1.90;;;1.80;;
15899;SDS011;8048;50.644;6.184;2023-08-08T13:24:16;2.40;;;2.20;;
15899;SDS011;8048;50.644;6.184;2023-08-08T13:26:41;4.20;;;2.40;;
15899;SDS011;8048;50.644;6.184;2023-08-08T13:29:07;2.40;;;2.20;;
15899;SDS011;8048;50.644;6.184;2023-08-08T13:31:33;2.73;;;1.80;;
15899;SDS011;8048;50.644;6.184;2023-08-08T13:33:59;2.57;;;2.37;;
15899;SDS011;8048;50.644;6.184;2023-08-08T13:36:24;2.07;;;1.97;;
15899;SDS011;8048;50.644;6.184;2023-08-08T13:38:50;2.23;;;2.13;;
15899;SDS011;8048;50.644;6.184;2023-08-08T13:41:15;2.73;;;2.37;;
15899;SDS011;8048;50.644;6.184;2023-08-08T13:43:41;2.33;;;2.13;;
15899;SDS011;8048;50.644;6.184;2023-08-08T13:46:06;2.10;;;1.63;;
15899;SDS011;8048;50.644;6.184;2023-08-08T13:48:34;2.17;;;1.97;;
15899;SDS011;8048;50.644;6.184;2023-08-08T13:51:00;2.70;;;2.50;;
15899;SDS011;8048;50.644;6.184;2023-08-08T13:53:26;4.73;;;2.20;;
15899;SDS011;8048;50.644;6.184;2023-08-08T13:55:52;3.40;;;3.10;;
15899;SDS011;8048;50.644;6.184;2023-08-08T13:58:18;1.50;;;1.43;;
15899;SDS011;8048;50.644;6.184;2023-08-08T14:00:46;2.47;;;2.10;;
15899;SDS011;8048;50.644;6.184;2023-08-08T14:03:15;2.30;;;1.93;;
15899;SDS011;8048;50.644;6.184;2023-08-08T14:05:41;3.17;;;2.13;;
15899;SDS011;8048;50.644;6.184;2023-08-08T14:08:06;5.93;;;2.60;;
15899;SDS011;8048;50.644;6.184;2023-08-08T14:10:32;5.67;;;2.23;;
15899;SDS011;8048;50.644;6.184;2023-08-08T14:12:58;3.03;;;1.97;;
15899;SDS011;8048;50.644;6.184;2023-08-08T14:15:23;2.70;;;1.90;;
15899;SDS011;8048;50.644;6.184;2023-08-08T14:17:49;6.83;;;1.90;;
15899;SDS011;8048;50.644;6.184;2023-08-08T14:20:14;3.20;;;1.73;;
15899;SDS011;8048;50.644;6.184;2023-08-08T14:22:43;2.20;;;2.00;;
15899;SDS011;8048;50.644;6.184;2023-08-08T14:25:10;4.73;;;2.30;;
15899;SDS011;8048;50.644;6.184;2023-08-08T14:27:36;2.10;;;2.00;;
15899;SDS011;8048;50.644;6.184;2023-08-08T14:30:02;2.20;;;2.10;;
15899;SDS011;8048;50.644;6.184;2023-08-08T14:32:29;2.00;;;1.80;;
15899;SDS011;8048;50.644;6.184;2023-08-08T14:34:54;5.73;;;2.53;;
15899;SDS011;8048;50.644;6.184;2023-08-08T14:37:20;1.87;;;1.77;;
15899;SDS011;8048;50.644;6.184;2023-08-08T14:39:46;6.03;;;2.37;;
15899;SDS011;8048;50.644;6.184;2023-08-08T14:42:12;4.30;;;2.20;;
15899;SDS011;8048;50.644;6.184;2023-08-08T14:44:37;4.20;;;2.10;;
15899;SDS011;8048;50.644;6.184;2023-08-08T14:47:03;6.73;;;2.80;;
15899;SDS011;8048;50.644;6.184;2023-08-08T14:49:29;3.50;;;2.10;;
15899;SDS011;8048;50.644;6.184;2023-08-08T14:51:55;2.17;;;2.07;;
15899;SDS011;8048;50.644;6.184;2023-08-08T14:54:20;2.50;;;2.30;;
15899;SDS011;8048;50.644;6.184;2023-08-08T14:56:46;3.03;;;2.83;;
15899;SDS011;8048;50.644;6.184;2023-08-08T14:59:11;2.40;;;2.20;;
15899;SDS011;8048;50.644;6.184;2023-08-08T15:01:37;2.57;;;2.37;;